createdAt,value
2023-05-16T00:00:44.139Z,12.27
2023-05-16T00:03:26.689Z,12.20
2023-05-16T00:05:58.394Z,12.19
2023-05-16T00:08:28.854Z,12.21
2023-05-16T00:10:58.901Z,12.21
2023-05-16T00:13:31.111Z,12.22
2023-05-16T00:16:02.987Z,12.24
2023-05-16T00:18:32.905Z,12.27
2023-05-16T00:21:02.933Z,12.28
2023-05-16T00:23:33.821Z,12.28
2023-05-16T00:26:04.584Z,12.29
2023-05-16T00:28:34.246Z,12.30
2023-05-16T00:31:06.838Z,12.31
2023-05-16T00:33:36.904Z,12.31
2023-05-16T00:36:07.132Z,12.27
2023-05-16T00:38:37.860Z,12.23
2023-05-16T00:41:11.146Z,12.23
2023-05-16T00:43:41.075Z,12.16
2023-05-16T00:46:11.193Z,12.12
2023-05-16T00:48:42.595Z,12.11
2023-05-16T00:51:14.901Z,12.08
2023-05-16T00:53:45.133Z,12.07
2023-05-16T00:56:21.809Z,12.05
2023-05-16T00:58:52.236Z,12.04
2023-05-16T01:01:25.407Z,12.01
2023-05-16T01:03:58.882Z,11.99
2023-05-16T01:06:34.670Z,11.98
2023-05-16T01:09:08.760Z,11.97
2023-05-16T01:11:59.692Z,11.95
2023-05-16T01:15:11.279Z,11.89
2023-05-16T01:18:14.846Z,11.84
2023-05-16T01:20:57.051Z,11.78
2023-05-16T01:23:53.947Z,11.72
2023-05-16T01:26:28.569Z,11.66
2023-05-16T01:29:01.586Z,11.66
2023-05-16T01:31:34.373Z,11.66
2023-05-16T01:34:04.210Z,11.65
2023-05-16T01:36:44.662Z,11.62
2023-05-16T01:39:29.334Z,11.60
2023-05-16T01:42:09.324Z,11.59
2023-05-16T01:44:59.641Z,11.59
2023-05-16T01:47:33.453Z,11.58
2023-05-16T01:50:18.167Z,11.59
2023-05-16T01:52:57.385Z,11.59
2023-05-16T01:55:43.770Z,11.58
2023-05-16T01:58:15.640Z,11.60
2023-05-16T02:00:47.219Z,11.63
2023-05-16T02:03:16.619Z,11.57
2023-05-16T02:05:48.903Z,11.57
2023-05-16T02:08:18.866Z,11.59
2023-05-16T02:10:49.487Z,11.60
2023-05-16T02:13:19.617Z,11.62
2023-05-16T02:15:49.621Z,11.63
2023-05-16T02:18:19.802Z,11.63
2023-05-16T02:20:52.709Z,11.62
2023-05-16T02:23:25.107Z,11.61
2023-05-16T02:25:56.397Z,11.60
2023-05-16T02:28:26.291Z,11.57
2023-05-16T02:31:00.928Z,11.55
2023-05-16T02:33:30.893Z,11.52
2023-05-16T02:36:04.613Z,11.49
2023-05-16T02:38:34.688Z,11.47
2023-05-16T02:41:05.235Z,11.45
2023-05-16T02:43:35.368Z,11.42
2023-05-16T02:46:09.915Z,11.37
2023-05-16T02:48:39.387Z,11.34
2023-05-16T02:51:08.817Z,11.32
2023-05-16T02:53:38.524Z,11.30
2023-05-16T02:56:09.240Z,11.29
2023-05-16T02:58:40.093Z,11.29
2023-05-16T03:01:11.354Z,11.19
2023-05-16T03:03:43.901Z,11.16
2023-05-16T03:06:14.049Z,11.16
2023-05-16T03:08:44.378Z,11.18
2023-05-16T03:11:15.705Z,11.20
2023-05-16T03:13:46.699Z,11.22
2023-05-16T03:16:17.461Z,11.21
2023-05-16T03:18:49.439Z,11.19
2023-05-16T03:21:19.447Z,11.20
2023-05-16T03:23:50.078Z,11.23
2023-05-16T03:26:22.777Z,11.24
2023-05-16T03:28:54.682Z,11.25
2023-05-16T03:31:28.783Z,11.25
2023-05-16T03:34:02.253Z,11.23
2023-05-16T03:36:34.658Z,11.24
2023-05-16T03:39:05.032Z,11.26
2023-05-16T03:41:36.669Z,11.31
2023-05-16T03:44:09.064Z,11.35
2023-05-16T03:46:39.128Z,11.40
2023-05-16T03:49:09.372Z,11.46
2023-05-16T03:51:39.774Z,11.55
2023-05-16T03:54:09.986Z,11.61
2023-05-16T03:56:39.496Z,11.69
2023-05-16T03:59:09.509Z,11.77
2023-05-16T04:01:45.019Z,11.85
2023-05-16T04:04:19.480Z,11.92
2023-05-16T04:07:16.280Z,12.02
2023-05-16T04:09:45.059Z,12.11
2023-05-16T04:12:15.564Z,12.21
2023-05-16T04:14:53.594Z,12.34
2023-05-16T04:17:23.703Z,12.46
2023-05-16T04:19:56.748Z,12.57
2023-05-16T04:22:30.077Z,12.67
2023-05-16T04:25:03.351Z,12.77
2023-05-16T04:27:32.843Z,12.92
2023-05-16T04:30:08.011Z,13.13
2023-05-16T04:32:37.970Z,13.39
2023-05-16T04:35:16.860Z,13.70
2023-05-16T04:37:54.195Z,14.08
2023-05-16T04:40:25.728Z,14.51
2023-05-16T04:42:55.539Z,14.91
2023-05-16T04:45:25.349Z,15.22
2023-05-16T04:47:56.095Z,15.57
2023-05-16T04:50:26.084Z,15.88
2023-05-16T04:52:56.710Z,16.08
2023-05-16T04:55:40.987Z,16.15
2023-05-16T04:58:24.741Z,16.31
2023-05-16T05:01:03.466Z,16.62
2023-05-16T05:03:38.182Z,16.85
2023-05-16T05:06:08.423Z,17.05
2023-05-16T05:08:38.154Z,17.07
2023-05-16T05:11:07.740Z,16.92
2023-05-16T05:13:39.032Z,16.67
2023-05-16T05:16:13.360Z,16.41
2023-05-16T05:18:49.766Z,16.11
2023-05-16T05:21:28.665Z,15.85
2023-05-16T05:24:05.207Z,15.47
2023-05-16T05:26:37.682Z,15.08
2023-05-16T05:29:10.676Z,14.77
2023-05-16T05:32:02.663Z,14.49
2023-05-16T05:34:40.483Z,14.34
2023-05-16T05:37:30.891Z,14.36
2023-05-16T05:40:34.445Z,14.32
2023-05-16T05:43:10.411Z,14.35
2023-05-16T05:45:48.707Z,14.37
2023-05-16T05:48:18.759Z,14.40
2023-05-16T05:50:48.886Z,14.46
2023-05-16T05:53:50.363Z,14.59
2023-05-16T05:56:29.375Z,14.79
2023-05-16T05:59:10.653Z,14.95
2023-05-16T06:01:42.751Z,15.03
2023-05-16T06:04:25.132Z,15.06
2023-05-16T06:07:13.591Z,15.08
2023-05-16T06:10:07.484Z,15.27
2023-05-16T06:13:01.470Z,15.64
2023-05-16T06:15:50.679Z,16.06
2023-05-16T06:18:38.592Z,16.33
2023-05-16T06:21:20.108Z,16.56
2023-05-16T06:24:21.283Z,16.53
2023-05-16T06:27:19.551Z,16.48
2023-05-16T06:30:07.257Z,16.40
2023-05-16T06:32:43.451Z,16.37
2023-05-16T06:35:18.523Z,16.68
2023-05-16T06:37:49.283Z,17.08
2023-05-16T06:40:22.398Z,17.35
2023-05-16T06:43:04.192Z,17.52
2023-05-16T06:45:37.238Z,17.67
2023-05-16T06:48:11.963Z,17.92
2023-05-16T06:50:45.156Z,18.16
2023-05-16T06:53:24.913Z,18.39
2023-05-16T06:55:59.458Z,18.65
2023-05-16T06:58:31.462Z,18.97
2023-05-16T07:01:03.601Z,19.47
2023-05-16T07:03:42.710Z,19.75
2023-05-16T07:06:16.362Z,19.77
2023-05-16T07:08:48.803Z,19.78
2023-05-16T07:11:29.536Z,19.88
2023-05-16T07:14:02.761Z,20.12
2023-05-16T07:16:44.726Z,20.38
2023-05-16T07:19:24.025Z,20.50
2023-05-16T07:22:00.104Z,20.56
2023-05-16T07:24:40.068Z,20.49
2023-05-16T07:27:12.416Z,20.60
2023-05-16T07:29:46.055Z,20.80
2023-05-16T07:32:17.168Z,20.99
2023-05-16T07:34:51.366Z,21.08
2023-05-16T07:37:31.346Z,21.33
2023-05-16T07:40:18.908Z,21.36
2023-05-16T07:42:55.777Z,21.34
2023-05-16T07:45:44.622Z,21.31
2023-05-16T07:49:04.573Z,21.05
2023-05-16T07:51:29.177Z,21.09
2023-05-16T07:54:05.732Z,21.42
2023-05-16T07:56:45.429Z,21.64
2023-05-16T07:59:26.832Z,21.90
2023-05-16T08:02:34.521Z,22.13
2023-05-16T08:05:18.051Z,22.55
2023-05-16T08:08:16.491Z,22.97
2023-05-16T08:11:08.365Z,23.21
2023-05-16T08:13:53.154Z,23.21
2023-05-16T08:16:49.545Z,23.40
2023-05-16T08:19:30.227Z,23.73
2023-05-16T08:22:40.402Z,23.89
2023-05-16T08:25:46.178Z,23.84
2023-05-16T08:28:36.703Z,23.75
2023-05-16T08:32:01.226Z,23.74
2023-05-16T08:36:35.601Z,23.55
2023-05-16T08:40:07.551Z,23.32
2023-05-16T08:43:37.369Z,23.22
2023-05-16T08:46:32.408Z,23.27
2023-05-16T09:15:54.861Z,23.23
2023-05-16T09:19:05.298Z,23.16
2023-05-16T09:22:18.869Z,22.95
2023-05-16T09:25:32.029Z,23.03
2023-05-16T09:28:29.561Z,23.23
2023-05-16T09:31:31.210Z,23.25
2023-05-16T09:34:13.869Z,23.19
2023-05-16T09:36:44.191Z,23.30
2023-05-16T09:39:17.533Z,23.49
2023-05-16T09:41:52.942Z,23.66
2023-05-16T09:44:23.065Z,23.59
2023-05-16T09:47:07.544Z,23.60
2023-05-16T09:49:48.531Z,23.63
2023-05-16T09:52:26.379Z,23.37
2023-05-16T09:55:16.331Z,23.32
2023-05-16T09:58:11.295Z,23.39
2023-05-16T10:01:02.903Z,23.27
2023-05-16T10:03:38.562Z,23.03
2023-05-16T10:06:18.722Z,22.90
2023-05-16T10:08:54.234Z,22.91
2023-05-16T10:11:24.900Z,23.07
2023-05-16T10:14:01.274Z,23.19
2023-05-16T10:16:36.037Z,23.08
2023-05-16T10:19:11.623Z,22.92
2023-05-16T10:21:55.595Z,22.91
2023-05-16T10:25:09.767Z,23.07
2023-05-16T10:27:55.461Z,23.28
2023-05-16T10:30:37.884Z,23.40
2023-05-16T10:33:20.940Z,23.26
2023-05-16T10:35:55.767Z,22.97
2023-05-16T10:38:29.577Z,22.73
2023-05-16T10:41:07.401Z,22.54
2023-05-16T10:43:41.445Z,22.50
2023-05-16T10:46:15.191Z,22.40
2023-05-16T10:48:50.032Z,22.27
2023-05-16T10:51:37.033Z,22.20
2023-05-16T10:55:04.405Z,22.10
2023-05-16T10:57:54.025Z,22.01
2023-05-16T11:00:24.266Z,22.02
2023-05-16T11:03:26.721Z,21.97
2023-05-16T11:06:23.603Z,21.82
2023-05-16T11:09:29.082Z,21.65
2023-05-16T11:12:05.733Z,21.60
2023-05-16T11:14:48.025Z,21.54
2023-05-16T11:17:39.976Z,21.45
2023-05-16T11:20:34.692Z,21.38
2023-05-16T11:23:26.982Z,21.38
2023-05-16T11:26:11.195Z,21.37
2023-05-16T11:28:49.522Z,21.40
2023-05-16T11:31:58.675Z,21.37
2023-05-16T11:34:45.814Z,21.29
2023-05-16T11:38:01.279Z,21.30
2023-05-16T11:40:46.366Z,21.36
2023-05-16T11:43:33.876Z,21.43
2023-05-16T11:46:17.794Z,21.40
2023-05-16T11:48:57.593Z,21.40
2023-05-16T11:51:35.675Z,21.49
2023-05-16T11:54:10.035Z,21.52
2023-05-16T11:56:43.126Z,21.59
2023-05-16T11:59:23.641Z,21.67
2023-05-16T12:02:06.402Z,21.60
2023-05-16T12:04:48.193Z,21.64
2023-05-16T12:07:23.548Z,21.73
2023-05-16T12:10:08.994Z,21.83
2023-05-16T12:12:59.184Z,21.83
2023-05-16T12:15:42.104Z,21.74
2023-05-16T12:18:43.363Z,21.70
2023-05-16T12:21:24.803Z,21.72
2023-05-16T12:24:18.461Z,21.75
2023-05-16T12:27:12.550Z,21.80
2023-05-16T12:29:51.453Z,21.88
2023-05-16T12:36:00.169Z,21.84
2023-05-16T12:39:00.194Z,21.85
2023-05-16T12:42:41.478Z,21.87
2023-05-16T12:45:35.533Z,21.92
2023-05-16T12:48:15.254Z,22.04
2023-05-16T12:50:51.584Z,22.11
2023-05-16T12:56:54.546Z,22.01
2023-05-16T12:59:34.889Z,21.99
2023-05-16T13:02:17.890Z,21.94
2023-05-16T13:05:06.223Z,21.89
2023-05-16T13:07:42.280Z,21.84
2023-05-16T13:10:22.360Z,21.81
2023-05-16T13:13:01.184Z,21.76
2023-05-16T13:15:59.316Z,21.72
2023-05-16T13:19:36.563Z,21.72
2023-05-16T13:22:20.700Z,21.71
2023-05-16T13:25:15.613Z,21.74
2023-05-16T13:28:12.232Z,21.72
2023-05-16T13:34:32.342Z,21.57
2023-05-16T13:37:13.479Z,21.57
2023-05-16T13:40:01.108Z,21.58
2023-05-16T13:42:40.715Z,21.55
2023-05-16T13:45:26.639Z,21.51
2023-05-16T13:48:16.852Z,21.51
2023-05-16T13:50:52.276Z,21.51
2023-05-16T13:53:26.034Z,21.49
2023-05-16T13:56:05.865Z,21.49
2023-05-16T13:59:02.027Z,21.51
2023-05-16T14:01:38.090Z,21.50
2023-05-16T14:04:15.652Z,21.52
2023-05-16T14:06:58.549Z,21.53
2023-05-16T14:09:39.484Z,21.53
2023-05-16T14:12:11.497Z,21.51
2023-05-16T14:15:02.588Z,21.48
2023-05-16T14:17:52.301Z,21.49
2023-05-16T14:20:28.045Z,21.48
2023-05-16T14:23:09.346Z,21.42
2023-05-16T14:25:59.220Z,21.40
2023-05-16T14:28:49.429Z,21.37
2023-05-16T14:31:21.658Z,21.29
2023-05-16T14:33:52.711Z,21.19
2023-05-16T14:36:36.956Z,21.10
2023-05-16T14:39:08.744Z,21.05
2023-05-16T14:41:45.503Z,20.97
2023-05-16T14:44:22.473Z,20.90
2023-05-16T14:47:09.637Z,20.86
2023-05-16T14:49:43.172Z,20.81
2023-05-16T14:52:38.573Z,20.73
2023-05-16T14:55:16.293Z,20.62
2023-05-16T14:58:41.211Z,20.55
2023-05-16T15:01:20.308Z,20.42
2023-05-16T15:04:08.877Z,20.29
2023-05-16T15:06:43.048Z,20.16
2023-05-16T15:09:23.564Z,20.05
2023-05-16T15:11:55.949Z,19.95
2023-05-16T15:14:29.114Z,19.86
2023-05-16T15:17:01.717Z,19.82
2023-05-16T15:19:40.612Z,19.73
2023-05-16T15:22:24.656Z,19.63
2023-05-16T15:25:12.522Z,19.57
2023-05-16T15:27:52.582Z,19.55
2023-05-16T15:30:29.583Z,19.52
2023-05-16T15:32:59.101Z,19.48
2023-05-16T15:35:30.576Z,19.44
2023-05-16T15:38:12.363Z,19.34
2023-05-16T15:41:06.080Z,19.25
2023-05-16T15:44:35.522Z,19.10
2023-05-16T15:47:40.455Z,18.88
2023-05-16T15:50:20.610Z,18.69
2023-05-16T15:52:58.653Z,18.60
2023-05-16T15:55:39.154Z,18.55
2023-05-16T15:58:25.910Z,18.47
2023-05-16T16:01:23.943Z,18.34
2023-05-16T16:04:26.035Z,18.20
2023-05-16T16:09:16.277Z,18.07
2023-05-16T16:11:18.366Z,17.89
2023-05-16T16:14:10.299Z,17.83
2023-05-16T16:17:17.227Z,17.75
2023-05-16T16:24:35.743Z,17.66
2023-05-16T16:30:41.865Z,17.55
2023-05-16T16:33:53.644Z,17.53
2023-05-16T16:36:24.491Z,17.45
2023-05-16T16:50:31.542Z,17.27
2023-05-16T16:53:16.697Z,17.16
2023-05-16T16:56:02.734Z,17.09
2023-05-16T16:59:11.382Z,17.04
2023-05-16T17:01:51.051Z,17.00
2023-05-16T17:05:49.769Z,16.96
2023-05-16T17:08:25.242Z,16.85
2023-05-16T17:11:01.162Z,16.82
2023-05-16T17:13:42.266Z,16.79
2023-05-16T17:16:29.905Z,16.73
2023-05-16T17:19:00.512Z,16.66
2023-05-16T17:21:56.483Z,16.58
2023-05-16T17:24:33.252Z,16.51
2023-05-16T17:27:27.452Z,16.46
2023-05-16T17:30:14.906Z,16.42
2023-05-16T17:32:50.175Z,16.34
2023-05-16T17:35:25.309Z,16.35
2023-05-16T17:38:03.943Z,16.32
2023-05-16T17:40:52.895Z,16.25
2023-05-16T17:43:29.322Z,16.22
2023-05-16T17:46:08.878Z,16.21
2023-05-16T17:48:49.977Z,16.19
2023-05-16T17:51:23.272Z,16.18
2023-05-16T17:54:08.024Z,16.15
2023-05-16T17:56:48.734Z,16.12
2023-05-16T17:59:20.120Z,16.10
2023-05-16T18:01:50.219Z,16.07
2023-05-16T18:04:24.456Z,16.01
2023-05-16T18:07:05.870Z,15.93
2023-05-16T18:09:43.922Z,15.87
2023-05-16T18:12:14.840Z,15.83
2023-05-16T18:14:45.768Z,15.79
2023-05-16T18:17:16.607Z,15.75
2023-05-16T18:19:47.675Z,15.72
2023-05-16T18:22:27.469Z,15.69
2023-05-16T18:25:41.554Z,15.64
2023-05-16T18:28:33.492Z,15.58
2023-05-16T18:31:06.837Z,15.58
2023-05-16T18:33:37.372Z,15.59
2023-05-16T18:36:11.027Z,15.60
2023-05-16T18:38:51.866Z,15.58
2023-05-16T18:41:30.818Z,15.55
2023-05-16T18:44:13.977Z,15.51
2023-05-16T18:46:51.673Z,15.50
2023-05-16T18:49:29.801Z,15.44
2023-05-16T18:52:07.870Z,15.37
2023-05-16T18:54:40.290Z,15.32
2023-05-16T18:58:31.633Z,15.30
2023-05-16T19:03:10.053Z,15.20
2023-05-16T19:06:03.397Z,15.11
2023-05-16T19:09:15.145Z,15.10
2023-05-16T19:12:51.948Z,15.13
2023-05-16T19:15:40.510Z,15.09
2023-05-16T19:18:13.364Z,15.05
2023-05-16T19:24:07.001Z,14.99
2023-05-16T19:27:44.186Z,14.89
2023-05-16T19:30:22.711Z,14.75
2023-05-16T19:32:55.939Z,14.72
2023-05-16T19:35:32.128Z,14.72
2023-05-16T19:38:05.931Z,14.74
2023-05-16T19:40:47.207Z,14.75
2023-05-16T19:43:41.238Z,14.73
2023-05-16T19:46:14.906Z,14.67
2023-05-16T19:48:46.595Z,14.63
2023-05-16T19:51:33.186Z,14.60
2023-05-16T19:54:45.687Z,14.54
2023-05-16T20:01:50.516Z,14.47
2023-05-16T20:05:30.365Z,14.41
2023-05-16T20:16:28.901Z,14.35
2023-05-16T20:19:01.130Z,14.38
2023-05-16T20:22:12.631Z,14.40
2023-05-16T20:25:12.164Z,14.40
2023-05-16T20:27:51.747Z,14.38
2023-05-16T20:30:48.823Z,14.39
2023-05-16T20:33:21.499Z,14.37
2023-05-16T20:35:52.416Z,14.35
2023-05-16T20:38:28.268Z,14.33
2023-05-16T20:41:02.144Z,14.30
2023-05-16T20:43:35.744Z,14.29
2023-05-16T20:46:06.453Z,14.24
2023-05-16T20:48:39.855Z,14.20
2023-05-16T20:51:13.950Z,14.12
2023-05-16T20:53:52.794Z,14.03
2023-05-16T20:56:33.709Z,13.94
2023-05-16T20:59:14.293Z,13.84
2023-05-16T21:01:48.171Z,13.75
2023-05-16T21:04:26.894Z,13.65
2023-05-16T21:07:10.856Z,13.56
2023-05-16T21:10:11.007Z,13.43
2023-05-16T21:12:55.266Z,13.32
2023-05-16T21:15:42.562Z,13.26
2023-05-16T21:18:27.607Z,13.21
2023-05-16T21:21:00.661Z,13.15
2023-05-16T21:23:34.714Z,13.10
2023-05-16T21:26:11.438Z,13.08
2023-05-16T21:29:02.056Z,13.04
2023-05-16T21:31:52.611Z,13.00
2023-05-16T21:34:23.224Z,12.93
2023-05-16T21:36:54.328Z,12.90
2023-05-16T21:39:26.639Z,12.85
2023-05-16T21:41:56.937Z,12.80
2023-05-16T21:44:32.480Z,12.75
2023-05-16T21:47:02.931Z,12.72
2023-05-16T21:49:52.988Z,12.69
2023-05-16T21:52:23.558Z,12.66
2023-05-16T21:54:56.592Z,12.66
2023-05-16T21:57:30.437Z,12.66
2023-05-16T22:00:09.997Z,12.68
2023-05-16T22:02:45.687Z,12.68
2023-05-16T22:05:24.596Z,12.68
2023-05-16T22:07:54.784Z,12.62
2023-05-16T22:10:25.529Z,12.58
2023-05-16T22:12:55.961Z,12.55
2023-05-16T22:15:36.864Z,12.54
2023-05-16T22:18:24.522Z,12.54
2023-05-16T22:20:55.944Z,12.53
2023-05-16T22:23:26.231Z,12.54
2023-05-16T22:26:03.716Z,12.53
2023-05-16T22:28:34.734Z,12.52
2023-05-16T22:31:04.926Z,12.50
2023-05-16T22:33:37.810Z,12.44
2023-05-16T22:36:08.142Z,12.39
2023-05-16T22:38:38.554Z,12.34
2023-05-16T22:41:13.011Z,12.29
2023-05-16T22:43:45.957Z,12.25
2023-05-16T22:46:19.326Z,12.22
2023-05-16T22:48:49.770Z,12.09
2023-05-16T22:51:24.206Z,12.05
2023-05-16T22:53:55.139Z,12.06
2023-05-16T22:56:36.496Z,12.08
2023-05-16T22:59:11.910Z,12.07
2023-05-16T23:01:44.010Z,12.07
2023-05-16T23:04:14.515Z,12.08
2023-05-16T23:06:49.796Z,12.06
2023-05-16T23:09:31.384Z,12.04
2023-05-16T23:12:02.332Z,12.06
2023-05-16T23:14:32.435Z,12.04
2023-05-16T23:17:05.939Z,12.08
2023-05-16T23:19:39.411Z,12.07
2023-05-16T23:22:09.901Z,12.05
2023-05-16T23:24:43.024Z,12.04
2023-05-16T23:27:17.357Z,12.02
2023-05-16T23:29:49.748Z,11.99
2023-05-16T23:32:21.546Z,11.95
2023-05-16T23:34:52.142Z,11.84
2023-05-16T23:37:24.875Z,11.83
2023-05-16T23:39:57.851Z,11.82
2023-05-16T23:42:30.699Z,11.81
2023-05-16T23:45:08.693Z,11.79
2023-05-16T23:47:42.552Z,11.78
2023-05-16T23:50:21.609Z,11.79
2023-05-16T23:52:52.058Z,11.80
2023-05-16T23:55:22.440Z,11.81
2023-05-16T23:57:53.227Z,11.81
